KBAB/BAB METAR and TAF weather

Enter ICAO airport designator
Station Type Date Time Source
KBAB METAR 2018/06/25 01:58 UTC NOAA

KBAB 250158Z AUTO 16012KT 10SM CLR 34/13 A2972 RMK AO2 SLP066 T03370126 $


Station Type Date Time Source
KBAB Decoded METAR 2018/06/25 01:58 UTC NOAA

Marysville, Beale Air Force Base, CA, United States (KBAB) 39-08N 121-26W
Jun 24, 2018 - 09:58 PM EDT / 2018.06.25 0158 UTC
Wind: from the SSE (160 degrees) at 14 MPH (12 KT):0
Visibility: 10 mile(s):0
Sky conditions: clear
Temperature: 92.7 F (33.7 C)
Dew Point: 54.7 F (12.6 C)
Relative Humidity: 27%
Pressure (altimeter): 29.72 in. Hg (1006 hPa)
ob: KBAB 250158Z AUTO 16012KT 10SM CLR 34/13 A2972 RMK AO2 SLP066 T03370126
cycle: 2

Station Type Date Time Source
KBAB TAF 2018/06/23 03:59 UTC NOAA

TAF
AMD KBAB 230354Z 2303/2409 VRB06KT 9999 SKC QNH2972INS
BECMG 2317/2318 33009KT 9999 SKC QNH2968INS
BECMG 2320/2321 34012KT 9999 SKC QNH2963INS
TEMPO 2321/2324 34012G18KT
BECMG 2402/2403 03009KT 9999 SKC QNH2965INS TX38/2323Z TN17/2312Z LAST NO
AMDS AFT 2304 NEXT 2513


Example: see airport list